Time;durP1;ratioP1;P1;durP2;ratioP2;P2;SDS_P1;SDS_P2;PMS_P1;PMS_P2;Temp;Humidity;BMP_temperature;BMP_pressure;BME280_temperature;BME280_humidity;BME280_pressure;Samples;Min_cycle;Max_cycle;Signal;HPM_P1;HPM_P2
2023/05/13 00:01:51;;;;;;;4.60;2.90;;;20.20;1.00;;;;;;4829017;29;20445;-43
2023/05/13 00:04:17;;;;;;;4.15;3.03;;;20.20;1.00;;;;;;4820961;29;20460;-43
2023/05/13 00:06:44;;;;;;;3.78;2.67;;;20.20;1.00;;;;;;4825310;29;20064;-43
2023/05/13 00:09:11;;;;;;;3.78;2.83;;;20.20;1.00;;;;;;4840374;29;20467;-43
2023/05/13 00:11:38;;;;;;;4.40;3.45;;;20.20;1.00;;;;;;4832595;29;20047;-44
2023/05/13 00:14:08;;;;;;;4.57;3.38;;;20.20;1.00;;;;;;4840316;29;20455;-43
2023/05/13 00:16:35;;;;;;;5.78;3.00;;;20.20;1.00;;;;;;4830655;29;20060;-43
2023/05/13 00:19:02;;;;;;;4.90;3.10;;;20.20;1.00;;;;;;4829677;29;20042;-43
2023/05/13 00:21:29;;;;;;;5.22;3.00;;;20.20;1.00;;;;;;4826172;29;20066;-43
2023/05/13 00:23:56;;;;;;;5.35;3.13;;;20.20;1.00;;;;;;4843610;29;20042;-43
2023/05/13 00:26:22;;;;;;;5.13;3.08;;;20.10;1.00;;;;;;4835289;29;20110;-43
2023/05/13 00:28:49;;;;;;;3.40;3.10;;;20.10;1.00;;;;;;4828733;29;20046;-43
2023/05/13 00:31:16;;;;;;;4.07;3.30;;;20.10;1.00;;;;;;4834699;29;20478;-43
2023/05/13 00:33:43;;;;;;;4.82;2.90;;;20.10;1.00;;;;;;4831400;29;20115;-43
2023/05/13 00:36:11;;;;;;;4.45;3.10;;;20.20;1.00;;;;;;4837395;29;20050;-45
2023/05/13 00:38:38;;;;;;;4.47;3.20;;;20.10;1.00;;;;;;4840860;29;20455;-44
2023/05/13 00:41:05;;;;;;;6.78;3.28;;;20.10;1.00;;;;;;4838143;29;20038;-43
2023/05/13 00:43:32;;;;;;;5.88;3.60;;;20.10;1.00;;;;;;4830824;29;20156;-43
2023/05/13 00:45:59;;;;;;;5.60;3.45;;;20.10;1.00;;;;;;4823401;29;20070;-43
2023/05/13 00:48:26;;;;;;;4.63;3.28;;;20.10;1.00;;;;;;4838711;29;20118;-43
2023/05/13 00:50:53;;;;;;;3.55;3.25;;;20.10;1.00;;;;;;4836375;29;20091;-43
2023/05/13 00:53:19;;;;;;;5.10;3.55;;;20.10;1.00;;;;;;4842907;29;20045;-43
2023/05/13 00:55:46;;;;;;;4.35;3.33;;;20.10;1.00;;;;;;4841259;29;20049;-43
2023/05/13 00:58:13;;;;;;;4.75;3.30;;;20.10;1.00;;;;;;4843091;29;20038;-44
2023/05/13 01:01:16;;;;;;;7.22;3.67;;;20.00;1.00;;;;;;4841624;29;20046;-44
2023/05/13 01:04:03;;;;;;;7.38;4.10;;;20.10;1.00;;;;;;4832511;29;20396;-43
2023/05/13 01:06:56;;;;;;;5.03;3.13;;;20.00;1.00;;;;;;4825074;29;20571;-43
2023/05/13 01:09:28;;;;;;;6.82;4.10;;;20.00;1.00;;;;;;4823319;29;20468;-43
2023/05/13 01:12:01;;;;;;;4.57;3.63;;;20.00;1.00;;;;;;4829534;29;20515;-44
2023/05/13 01:14:35;;;;;;;4.97;3.10;;;20.00;1.00;;;;;;4834324;29;20050;-44
2023/05/13 01:17:17;;;;;;;4.85;3.42;;;20.00;1.00;;;;;;4830708;29;20168;-43
2023/05/13 01:19:48;;;;;;;3.95;3.47;;;20.00;1.00;;;;;;4831820;29;20043;-43
2023/05/13 01:22:15;;;;;;;5.53;3.28;;;20.00;1.00;;;;;;4838420;29;20042;-43
2023/05/13 01:24:42;;;;;;;4.55;3.25;;;20.00;1.00;;;;;;4833395;29;20141;-43
2023/05/13 01:27:09;;;;;;;5.65;3.33;;;20.00;1.00;;;;;;4827897;29;20058;-44
2023/05/13 01:29:36;;;;;;;3.95;3.33;;;20.00;1.00;;;;;;4840629;29;20046;-43
2023/05/13 01:32:04;;;;;;;3.85;2.88;;;20.00;1.00;;;;;;4840528;29;20050;-44
2023/05/13 01:34:33;;;;;;;5.78;3.10;;;20.00;1.00;;;;;;4834391;29;20511;-42
2023/05/13 01:37:00;;;;;;;6.78;3.33;;;20.00;1.00;;;;;;4828701;29;20073;-43
2023/05/13 01:39:27;;;;;;;7.70;3.65;;;19.90;1.00;;;;;;4830310;29;20053;-43
2023/05/13 01:41:58;;;;;;;4.55;3.58;;;19.90;1.00;;;;;;4830384;29;20099;-42
2023/05/13 01:44:24;;;;;;;6.78;3.22;;;20.00;1.00;;;;;;4822690;29;20053;-45
2023/05/13 01:46:52;;;;;;;4.60;3.22;;;20.00;1.00;;;;;;4830142;29;20115;-42
2023/05/13 01:49:19;;;;;;;7.13;3.60;;;19.90;1.00;;;;;;4838335;29;20445;-42
2023/05/13 01:51:46;;;;;;;6.90;3.33;;;19.90;1.00;;;;;;4841913;29;20073;-42
2023/05/13 01:54:13;;;;;;;6.55;4.32;;;19.90;1.00;;;;;;4833146;29;20069;-43
2023/05/13 01:56:45;;;;;;;8.23;3.53;;;19.90;1.00;;;;;;4840273;29;20054;-44
2023/05/13 01:59:12;;;;;;;6.32;4.10;;;19.90;1.00;;;;;;4827380;29;20046;-45
2023/05/13 02:01:39;;;;;;;6.13;3.78;;;19.90;1.00;;;;;;4824071;29;20054;-44
2023/05/13 02:04:06;;;;;;;5.47;3.60;;;19.90;1.00;;;;;;4832825;29;20085;-45
2023/05/13 02:06:33;;;;;;;5.72;3.63;;;19.90;1.00;;;;;;4833121;29;20054;-42
2023/05/13 02:09:00;;;;;;;6.72;3.38;;;19.90;1.00;;;;;;4826735;29;20042;-44
2023/05/13 02:11:27;;;;;;;6.95;3.78;;;19.90;1.00;;;;;;4841493;29;20121;-44
2023/05/13 02:13:56;;;;;;;4.45;3.65;;;19.80;1.00;;;;;;4832930;29;20046;-44
2023/05/13 02:16:22;;;;;;;5.38;3.60;;;19.90;1.00;;;;;;4840156;29;20118;-45
2023/05/13 02:18:50;;;;;;;5.95;3.75;;;19.90;1.00;;;;;;4840185;29;20042;-45
2023/05/13 02:21:17;;;;;;;4.85;3.58;;;19.80;1.00;;;;;;4832860;29;20044;-44
2023/05/13 02:23:44;;;;;;;4.03;3.42;;;19.80;1.00;;;;;;4832571;29;20053;-44
2023/05/13 02:26:11;;;;;;;5.78;3.35;;;19.90;1.00;;;;;;4840038;29;20418;-45
2023/05/13 02:28:37;;;;;;;3.97;3.55;;;19.80;1.00;;;;;;4841381;29;20098;-45
2023/05/13 02:31:05;;;;;;;8.43;4.18;;;19.80;1.00;;;;;;4828006;29;20046;-45
2023/05/13 02:33:32;;;;;;;3.85;3.15;;;19.80;1.00;;;;;;4829776;29;20052;-43
2023/05/13 02:35:59;;;;;;;5.53;3.38;;;19.80;1.00;;;;;;4836028;29;20069;-44
2023/05/13 02:38:25;;;;;;;8.38;3.67;;;19.80;1.00;;;;;;4829322;29;20041;-45
2023/05/13 02:40:53;;;;;;;5.90;3.55;;;19.80;1.00;;;;;;4832326;29;20046;-44
2023/05/13 02:43:20;;;;;;;7.55;3.28;;;19.80;1.00;;;;;;4839739;29;20045;-44
2023/05/13 02:45:54;;;;;;;7.07;3.50;;;19.80;1.00;;;;;;4832248;29;20116;-44
2023/05/13 02:48:21;;;;;;;5.45;4.07;;;19.80;1.00;;;;;;4832413;29;20061;-44
2023/05/13 02:50:49;;;;;;;5.10;3.13;;;19.80;1.00;;;;;;4829751;29;20055;-45
2023/05/13 02:53:16;;;;;;;5.50;3.50;;;19.80;1.00;;;;;;4827693;29;20571;-44
2023/05/13 02:55:49;;;;;;;4.47;3.42;;;19.80;1.00;;;;;;4824304;29;20186;-44
2023/05/13 02:58:16;;;;;;;8.63;3.63;;;19.70;1.00;;;;;;4835063;29;20560;-44
2023/05/13 03:00:43;;;;;;;5.43;3.83;;;19.70;1.00;;;;;;4838331;29;20057;-44
2023/05/13 03:03:10;;;;;;;7.28;4.10;;;19.70;1.00;;;;;;4839965;29;20042;-44
2023/05/13 03:05:37;;;;;;;4.47;3.38;;;19.70;1.00;;;;;;4838240;29;20133;-44
2023/05/13 03:08:04;;;;;;;8.20;3.92;;;19.70;1.00;;;;;;4833650;29;20058;-44
2023/05/13 03:10:31;;;;;;;3.97;3.35;;;19.70;1.00;;;;;;4824536;29;20396;-45
2023/05/13 03:12:57;;;;;;;5.30;3.13;;;19.70;1.00;;;;;;4840797;29;20376;-44
2023/05/13 03:15:24;;;;;;;5.88;3.40;;;19.70;1.00;;;;;;4825476;29;20050;-44
2023/05/13 03:17:51;;;;;;;3.85;3.13;;;19.70;1.00;;;;;;4823769;29;20068;-45
2023/05/13 03:20:19;;;;;;;6.97;4.30;;;19.70;1.00;;;;;;4839750;29;20081;-45
2023/05/13 03:22:46;;;;;;;7.05;3.70;;;19.70;1.00;;;;;;4831775;29;20444;-44
2023/05/13 03:25:14;;;;;;;10.85;3.90;;;19.60;1.00;;;;;;4839344;29;20046;-44
2023/05/13 03:27:49;;;;;;;4.82;3.38;;;19.70;1.00;;;;;;4839242;29;20060;-44
2023/05/13 03:30:18;;;;;;;6.85;3.22;;;19.70;1.00;;;;;;4840657;29;20058;-44
2023/05/13 03:32:52;;;;;;;8.07;4.25;;;19.60;1.00;;;;;;4831768;29;20674;-44
2023/05/13 03:35:19;;;;;;;4.43;3.60;;;19.60;1.00;;;;;;4833414;29;20051;-44
2023/05/13 03:37:46;;;;;;;4.45;3.13;;;19.60;1.00;;;;;;4829428;29;20441;-45
2023/05/13 03:40:14;;;;;;;6.43;3.95;;;19.60;1.00;;;;;;4826687;29;20042;-45
2023/05/13 03:42:42;;;;;;;7.15;3.88;;;19.60;1.00;;;;;;4833395;29;20045;-44
2023/05/13 03:45:09;;;;;;;5.30;3.97;;;19.60;1.00;;;;;;4828763;29;20080;-44
2023/05/13 03:47:38;;;;;;;5.63;3.78;;;19.60;1.00;;;;;;4828304;29;20054;-44
2023/05/13 03:50:09;;;;;;;7.25;3.50;;;19.60;1.00;;;;;;4831798;29;20144;-44
2023/05/13 03:52:41;;;;;;;4.63;3.47;;;19.60;1.00;;;;;;4829868;29;20110;-44
2023/05/13 03:55:13;;;;;;;8.50;4.03;;;19.60;1.00;;;;;;4834795;29;20514;-44
2023/05/13 03:57:43;;;;;;;6.75;3.40;;;19.50;1.00;;;;;;4828344;29;20046;-45
2023/05/13 04:00:11;;;;;;;7.18;3.83;;;19.50;1.00;;;;;;4837954;29;20114;-44
2023/05/13 04:02:40;;;;;;;5.53;3.40;;;19.50;1.00;;;;;;4833186;29;20134;-45
2023/05/13 04:05:09;;;;;;;6.30;3.70;;;19.50;1.00;;;;;;4829997;29;20037;-45
2023/05/13 04:07:36;;;;;;;7.53;3.90;;;19.50;1.00;;;;;;4834627;29;20503;-44
2023/05/13 04:10:03;;;;;;;7.28;4.18;;;19.50;1.00;;;;;;4831209;29;20061;-44
2023/05/13 04:12:32;;;;;;;6.05;3.80;;;19.50;1.00;;;;;;4839220;29;20483;-44
2023/05/13 04:14:59;;;;;;;4.82;3.50;;;19.50;1.00;;;;;;4827681;29;20053;-44
2023/05/13 04:17:26;;;;;;;3.90;3.50;;;19.50;1.00;;;;;;4834562;29;20046;-46
2023/05/13 04:19:53;;;;;;;5.70;3.65;;;19.50;1.00;;;;;;4824331;29;20177;-44
2023/05/13 04:22:21;;;;;;;7.93;3.70;;;19.50;1.00;;;;;;4831729;29;20038;-44
2023/05/13 04:24:50;;;;;;;5.22;3.72;;;19.50;1.00;;;;;;4834378;29;20038;-44
2023/05/13 04:27:17;;;;;;;7.18;3.85;;;19.50;1.00;;;;;;4842311;29;20050;-44
2023/05/13 04:29:46;;;;;;;6.40;4.03;;;19.50;1.00;;;;;;4834369;29;20054;-44
2023/05/13 04:32:16;;;;;;;5.35;3.92;;;19.50;1.00;;;;;;4842170;29;20093;-44
2023/05/13 04:34:43;;;;;;;5.35;3.63;;;19.50;1.00;;;;;;4835409;29;20108;-44
2023/05/13 04:37:10;;;;;;;5.55;2.92;;;19.50;1.00;;;;;;4837330;29;20069;-44
2023/05/13 04:39:37;;;;;;;5.63;3.70;;;19.40;1.00;;;;;;4840276;29;20464;-44
2023/05/13 04:42:04;;;;;;;6.28;3.45;;;19.50;1.00;;;;;;4839229;29;20038;-44
2023/05/13 04:44:32;;;;;;;5.72;3.60;;;19.50;1.00;;;;;;4834158;29;20058;-44
2023/05/13 04:46:59;;;;;;;4.53;2.85;;;19.50;1.00;;;;;;4833963;29;20066;-44
2023/05/13 04:49:26;;;;;;;6.18;4.18;;;19.50;1.00;;;;;;4841943;29;20045;-44
2023/05/13 04:51:53;;;;;;;5.05;3.85;;;19.50;1.00;;;;;;4831786;29;20146;-44
2023/05/13 04:54:21;;;;;;;4.85;2.92;;;19.50;1.00;;;;;;4823417;29;20077;-44
2023/05/13 04:56:47;;;;;;;6.10;3.15;;;19.50;1.00;;;;;;4830488;29;20515;-45
2023/05/13 04:59:15;;;;;;;7.20;3.55;;;19.40;1.00;;;;;;4836182;29;20046;-44
2023/05/13 05:01:41;;;;;;;4.15;3.00;;;19.40;1.00;;;;;;4833248;29;20062;-44
2023/05/13 05:04:08;;;;;;;4.00;3.60;;;19.40;1.00;;;;;;4830890;29;20137;-45
2023/05/13 05:06:35;;;;;;;7.10;3.58;;;19.40;1.00;;;;;;4830765;29;20399;-44
2023/05/13 05:09:03;;;;;;;5.55;3.55;;;19.50;1.00;;;;;;4816082;29;20057;-44
2023/05/13 05:11:30;;;;;;;7.43;3.78;;;19.40;1.00;;;;;;4830780;29;20050;-45
2023/05/13 05:13:57;;;;;;;5.38;3.30;;;19.40;1.00;;;;;;4831792;29;20477;-45
2023/05/13 05:16:24;;;;;;;5.32;3.55;;;19.40;1.00;;;;;;4830504;29;20133;-47
2023/05/13 05:18:50;;;;;;;5.65;3.40;;;19.40;1.00;;;;;;4830581;29;20054;-44
2023/05/13 05:21:18;;;;;;;5.15;3.35;;;19.40;1.00;;;;;;4830650;29;20055;-44
2023/05/13 05:23:45;;;;;;;8.48;3.78;;;19.50;1.00;;;;;;4831415;29;20054;-45
2023/05/13 05:26:12;;;;;;;5.30;3.40;;;19.50;1.00;;;;;;4836671;29;20054;-44
2023/05/13 05:28:42;;;;;;;5.20;3.10;;;19.40;1.00;;;;;;4822713;29;20050;-44
2023/05/13 05:31:09;;;;;;;4.55;3.35;;;19.40;1.00;;;;;;4834458;29;20053;-44
2023/05/13 05:33:38;;;;;;;4.20;3.08;;;19.40;1.00;;;;;;4826017;29;20054;-44
2023/05/13 05:36:05;;;;;;;6.07;2.85;;;19.50;1.00;;;;;;4829869;29;20046;-44
2023/05/13 05:38:33;;;;;;;6.40;3.17;;;19.50;1.00;;;;;;4829685;29;20083;-44
2023/05/13 05:41:01;;;;;;;4.60;3.25;;;19.50;1.00;;;;;;4825790;29;20384;-44
2023/05/13 05:43:29;;;;;;;3.80;2.92;;;19.50;1.00;;;;;;4826954;29;20042;-44
2023/05/13 05:45:56;;;;;;;4.03;2.95;;;19.40;1.00;;;;;;4837351;29;20055;-44
2023/05/13 05:48:24;;;;;;;3.67;2.92;;;19.40;1.00;;;;;;4828268;29;20076;-44
2023/05/13 05:50:51;;;;;;;8.40;3.97;;;19.50;1.00;;;;;;4838943;29;20054;-45
2023/05/13 05:53:25;;;;;;;7.55;2.97;;;19.50;1.00;;;;;;4829874;29;20106;-44
2023/05/13 05:55:52;;;;;;;5.00;3.42;;;19.50;1.00;;;;;;4838835;29;20053;-45
2023/05/13 05:58:20;;;;;;;5.28;2.60;;;19.50;1.00;;;;;;4840492;29;20045;-44
2023/05/13 06:00:47;;;;;;;5.43;3.17;;;19.60;1.00;;;;;;4832976;29;20069;-44
2023/05/13 06:03:14;;;;;;;4.60;3.10;;;19.60;1.00;;;;;;4828572;29;20534;-47
2023/05/13 06:05:41;;;;;;;6.15;3.13;;;19.60;1.00;;;;;;4838059;29;20148;-44
2023/05/13 06:08:08;;;;;;;5.00;3.50;;;19.60;1.00;;;;;;4834471;29;20053;-44
2023/05/13 06:10:35;;;;;;;3.33;2.47;;;19.60;1.00;;;;;;4840436;29;20061;-44
2023/05/13 06:13:02;;;;;;;4.80;3.30;;;19.60;1.00;;;;;;4840107;29;20056;-44
2023/05/13 06:15:29;;;;;;;6.07;3.10;;;19.60;1.00;;;;;;4840298;29;20102;-44
2023/05/13 06:17:56;;;;;;;4.88;3.10;;;19.60;1.00;;;;;;4825884;29;20059;-44
2023/05/13 06:20:23;;;;;;;6.03;2.95;;;19.60;1.00;;;;;;4834762;29;20418;-45
2023/05/13 06:22:50;;;;;;;4.75;3.30;;;19.60;1.00;;;;;;4831853;29;20050;-44
2023/05/13 06:25:17;;;;;;;7.07;3.42;;;19.70;1.00;;;;;;4840078;29;20050;-44
2023/05/13 06:27:44;;;;;;;5.00;2.95;;;19.70;1.00;;;;;;4832290;29;20082;-44
2023/05/13 06:30:11;;;;;;;4.10;2.88;;;19.70;1.00;;;;;;4836412;29;20047;-45
2023/05/13 06:32:41;;;;;;;4.05;2.60;;;19.70;1.00;;;;;;4829353;29;20047;-45
2023/05/13 06:35:23;;;;;;;4.93;3.17;;;19.70;1.00;;;;;;4827096;29;20050;-45
2023/05/13 06:37:50;;;;;;;5.65;3.45;;;19.80;1.00;;;;;;4838510;29;20053;-45
2023/05/13 06:40:16;;;;;;;4.03;3.13;;;19.80;1.00;;;;;;4818675;29;20462;-44
2023/05/13 06:42:44;;;;;;;4.63;3.08;;;19.80;1.00;;;;;;4836199;29;20052;-44
2023/05/13 06:45:14;;;;;;;5.47;2.75;;;19.80;1.00;;;;;;4825885;29;20041;-45
2023/05/13 06:47:41;;;;;;;4.93;3.38;;;19.80;1.00;;;;;;4833484;29;20061;-44
2023/05/13 06:50:10;;;;;;;6.63;3.25;;;19.80;1.00;;;;;;4829226;29;20050;-44
2023/05/13 06:52:37;;;;;;;4.78;2.72;;;19.90;1.00;;;;;;4829317;29;20050;-44
2023/05/13 06:55:07;;;;;;;4.22;2.83;;;19.90;1.00;;;;;;4833207;29;20091;-44
2023/05/13 06:57:34;;;;;;;6.82;2.53;;;19.90;1.00;;;;;;4833190;29;20049;-44
2023/05/13 07:00:09;;;;;;;3.75;2.53;;;19.90;1.00;;;;;;4840915;29;20042;-45
2023/05/13 07:02:36;;;;;;;3.78;2.97;;;19.90;1.00;;;;;;4833519;29;20046;-46
2023/05/13 07:05:03;;;;;;;4.90;2.80;;;20.00;1.00;;;;;;4829229;29;20181;-44
2023/05/13 07:07:30;;;;;;;4.10;2.53;;;20.00;1.00;;;;;;4836431;29;20076;-44
2023/05/13 07:09:57;;;;;;;3.63;2.53;;;20.00;1.00;;;;;;4831470;29;20045;-45
2023/05/13 07:12:23;;;;;;;10.25;3.55;;;20.00;1.00;;;;;;4827722;29;20046;-45
2023/05/13 07:14:50;;;;;;;4.20;3.00;;;20.10;1.00;;;;;;4831930;29;20452;-44
2023/05/13 07:17:17;;;;;;;5.63;3.13;;;20.00;1.00;;;;;;4833940;29;20044;-45
2023/05/13 07:19:44;;;;;;;4.88;3.60;;;20.10;1.00;;;;;;4832743;29;20146;-45
2023/05/13 07:22:11;;;;;;;4.30;2.92;;;20.10;1.00;;;;;;4833596;29;20054;-45
2023/05/13 07:24:39;;;;;;;5.10;2.63;;;20.10;1.00;;;;;;4833675;29;20042;-47
2023/05/13 07:27:06;;;;;;;5.25;2.90;;;20.20;1.00;;;;;;4832367;29;20117;-43
2023/05/13 07:29:33;;;;;;;5.80;2.88;;;20.20;1.00;;;;;;4833742;29;20049;-44
2023/05/13 07:32:06;;;;;;;4.50;2.13;;;20.20;1.00;;;;;;4842128;29;20046;-43
2023/05/13 07:34:33;;;;;;;;;;;20.20;1.00;;;;;;4840247;29;20053;-44
2023/05/13 07:37:00;;;;;;;6.22;3.17;;;20.30;1.00;;;;;;4826866;29;19925;-44
2023/05/13 07:39:27;;;;;;;5.85;2.67;;;20.20;1.00;;;;;;4838594;29;20038;-43
2023/05/13 07:41:54;;;;;;;3.97;2.83;;;20.30;1.00;;;;;;4833657;29;20490;-44
2023/05/13 07:44:20;;;;;;;7.18;3.13;;;20.30;1.00;;;;;;4832199;29;20043;-44
2023/05/13 07:46:48;;;;;;;4.38;2.95;;;20.30;1.00;;;;;;4833111;29;20041;-45
2023/05/13 07:49:15;;;;;;;4.03;2.60;;;20.30;1.00;;;;;;4833435;29;20387;-44
2023/05/13 07:51:42;;;;;;;5.47;2.33;;;20.30;1.00;;;;;;4840611;29;20049;-44
2023/05/13 07:54:09;;;;;;;4.78;2.53;;;20.30;1.00;;;;;;4836029;29;20050;-43
2023/05/13 07:56:37;;;;;;;4.90;2.83;;;20.40;1.00;;;;;;4837478;29;20137;-43
2023/05/13 07:59:04;;;;;;;4.07;2.88;;;20.40;1.00;;;;;;4825343;29;20129;-43
2023/05/13 08:01:30;;;;;;;6.40;3.22;;;20.40;1.00;;;;;;4825612;29;20039;-43
2023/05/13 08:03:57;;;;;;;5.13;3.28;;;20.50;1.00;;;;;;4832820;29;20046;-44
2023/05/13 08:06:24;;;;;;;6.88;3.33;;;20.50;1.00;;;;;;4825163;29;20046;-44
2023/05/13 08:08:51;;;;;;;3.55;2.50;;;20.50;1.00;;;;;;4833468;29;20136;-43
2023/05/13 08:11:18;;;;;;;7.50;2.47;;;20.50;1.00;;;;;;4836269;29;20049;-43
2023/05/13 08:13:45;;;;;;;4.13;2.63;;;20.60;1.00;;;;;;4843700;29;20057;-43
2023/05/13 08:16:11;;;;;;;3.22;2.10;;;20.60;1.00;;;;;;4832780;29;20046;-43
2023/05/13 08:18:38;;;;;;;3.40;2.17;;;20.60;1.00;;;;;;4832788;29;20050;-43
2023/05/13 08:21:05;;;;;;;3.03;2.50;;;20.60;1.00;;;;;;4840397;29;20122;-43
2023/05/13 08:23:33;;;;;;;4.78;2.20;;;20.60;1.00;;;;;;4825114;29;20065;-43
2023/05/13 08:26:11;;;;;;;6.32;2.28;;;20.70;1.00;;;;;;4824909;29;20038;-43
2023/05/13 08:28:38;;;;;;;4.25;2.85;;;20.70;1.00;;;;;;4831524;29;20046;-45
2023/05/13 08:31:05;;;;;;;5.35;2.97;;;20.70;1.00;;;;;;4835594;29;20054;-43
2023/05/13 08:33:32;;;;;;;4.88;3.17;;;20.70;1.00;;;;;;4829921;29;20073;-43
2023/05/13 08:35:59;;;;;;;6.65;2.80;;;20.70;1.00;;;;;;4832066;29;20081;-42
2023/05/13 08:38:26;;;;;;;8.38;2.80;;;20.80;1.00;;;;;;4832538;29;20483;-42
2023/05/13 08:40:53;;;;;;;4.70;2.38;;;20.80;1.00;;;;;;4839710;29;20049;-44
2023/05/13 08:43:23;;;;;;;5.10;3.15;;;20.80;1.00;;;;;;4834007;29;20212;-44
2023/05/13 08:45:52;;;;;;;4.20;2.30;;;20.80;1.00;;;;;;4842596;29;20049;-43
2023/05/13 08:48:20;;;;;;;4.80;2.17;;;20.80;1.00;;;;;;4836786;29;20050;-42
2023/05/13 08:50:48;;;;;;;4.25;2.20;;;20.80;1.00;;;;;;4835763;29;20042;-43
2023/05/13 08:53:17;;;;;;;5.55;2.30;;;20.90;1.00;;;;;;4824668;29;20056;-44
2023/05/13 08:55:44;;;;;;;5.35;2.42;;;20.90;1.00;;;;;;4831550;29;20075;-43
2023/05/13 08:58:11;;;;;;;4.22;2.70;;;20.90;1.00;;;;;;4824757;29;20071;-44
2023/05/13 09:00:38;;;;;;;3.75;2.63;;;20.90;1.00;;;;;;4837894;29;20554;-43
2023/05/13 09:03:05;;;;;;;6.20;2.05;;;20.90;1.00;;;;;;4835049;29;20054;-43
2023/05/13 09:05:32;;;;;;;5.53;2.25;;;20.90;1.00;;;;;;4837382;29;20086;-43
2023/05/13 09:08:07;;;;;;;3.92;2.30;;;21.00;1.00;;;;;;4833401;29;20563;-45
2023/05/13 09:10:35;;;;;;;2.67;2.08;;;21.00;1.00;;;;;;4842990;29;20529;-43
2023/05/13 09:13:03;;;;;;;4.55;2.53;;;21.00;1.00;;;;;;4835083;29;20053;-45
2023/05/13 09:15:30;;;;;;;4.95;2.50;;;21.00;1.00;;;;;;4838024;29;20100;-44
2023/05/13 09:18:00;;;;;;;4.45;2.92;;;21.00;1.00;;;;;;4839950;29;20046;-43
2023/05/13 09:20:27;;;;;;;9.95;2.85;;;21.10;1.00;;;;;;4835246;29;20049;-44
2023/05/13 09:23:19;;;;;;;4.03;2.45;;;21.00;1.00;;;;;;4841911;29;20046;-43
2023/05/13 09:25:46;;;;;;;3.50;2.22;;;21.10;1.00;;;;;;4830604;29;20050;-43
2023/05/13 09:28:14;;;;;;;5.65;2.60;;;21.10;1.00;;;;;;4824275;29;20042;-43
2023/05/13 09:30:41;;;;;;;6.40;2.63;;;21.10;1.00;;;;;;4830503;29;20050;-43
2023/05/13 09:33:18;;;;;;;8.65;3.42;;;21.10;1.00;;;;;;4831755;29;20042;-44
2023/05/13 09:35:52;;;;;;;3.92;2.67;;;21.10;1.00;;;;;;4823960;29;20124;-44
2023/05/13 09:38:20;;;;;;;6.90;2.97;;;21.10;1.00;;;;;;4816926;29;20121;-45
2023/05/13 09:40:52;;;;;;;6.65;2.40;;;21.10;1.00;;;;;;4831144;29;20490;-43
2023/05/13 09:43:23;;;;;;;3.35;2.33;;;21.20;1.00;;;;;;4831295;29;20042;-42
2023/05/13 09:45:59;;;;;;;5.03;2.88;;;21.10;1.00;;;;;;4831280;29;20070;-44
2023/05/13 09:48:28;;;;;;;2.97;2.50;;;21.20;1.00;;;;;;4817753;29;20054;-43
2023/05/13 09:50:56;;;;;;;4.03;2.55;;;21.20;1.00;;;;;;4823949;29;20047;-44
2023/05/13 09:53:24;;;;;;;2.50;2.05;;;21.20;1.00;;;;;;4841280;29;20046;-43
2023/05/13 09:55:54;;;;;;;4.35;2.75;;;21.20;1.00;;;;;;4834426;29;20129;-42
2023/05/13 09:58:23;;;;;;;3.55;2.75;;;21.20;1.00;;;;;;4823812;29;20070;-43
2023/05/13 10:00:50;;;;;;;3.47;2.22;;;21.20;1.00;;;;;;4823674;29;20038;-43
2023/05/13 10:03:18;;;;;;;10.15;3.40;;;21.20;1.00;;;;;;4834131;29;20049;-42
2023/05/13 10:05:45;;;;;;;3.40;2.40;;;21.20;1.00;;;;;;4834107;29;20494;-43
2023/05/13 10:08:14;;;;;;;4.75;2.42;;;21.20;1.00;;;;;;4839321;29;20230;-42
2023/05/13 10:10:44;;;;;;;8.52;2.50;;;21.20;1.00;;;;;;4837175;29;20057;-44
2023/05/13 10:13:13;;;;;;;4.38;2.53;;;21.20;1.00;;;;;;4839571;29;20042;-44
2023/05/13 10:15:53;;;;;;;5.38;2.63;;;21.20;1.00;;;;;;4836679;29;20558;-43
2023/05/13 10:18:22;;;;;;;3.90;2.65;;;21.20;1.00;;;;;;4816095;29;20042;-44
2023/05/13 10:20:51;;;;;;;3.88;2.38;;;21.20;1.00;;;;;;4823467;29;20410;-46
2023/05/13 10:23:21;;;;;;;3.67;2.00;;;21.30;1.00;;;;;;4834211;29;20042;-45
2023/05/13 10:25:49;;;;;;;3.13;2.00;;;21.20;1.00;;;;;;4834515;29;20070;-44
2023/05/13 10:28:16;;;;;;;4.30;2.00;;;21.20;1.00;;;;;;4830551;29;20046;-45
2023/05/13 10:30:43;;;;;;;5.03;2.08;;;21.30;1.00;;;;;;4829384;29;20050;-45
2023/05/13 10:33:11;;;;;;;5.00;2.30;;;21.30;1.00;;;;;;4833613;29;20125;-47
2023/05/13 10:35:42;;;;;;;3.58;2.70;;;21.30;1.00;;;;;;4828175;29;20051;-44
2023/05/13 10:38:23;;;;;;;5.18;2.40;;;21.30;1.00;;;;;;4824774;29;20050;-42
2023/05/13 10:41:16;;;;;;;4.15;2.33;;;21.30;1.00;;;;;;4833675;29;20070;-44
2023/05/13 10:43:42;;;;;;;3.67;2.20;;;21.30;1.00;;;;;;4824197;29;20045;-43
2023/05/13 10:46:12;;;;;;;3.47;2.60;;;21.20;1.00;;;;;;4831446;29;20042;-45
2023/05/13 10:48:42;;;;;;;2.97;1.90;;;21.30;1.00;;;;;;4823150;29;20145;-42
2023/05/13 10:51:13;;;;;;;3.15;2.17;;;21.30;1.00;;;;;;4822731;29;20091;-42
2023/05/13 10:53:45;;;;;;;4.70;2.33;;;21.30;1.00;;;;;;4822821;29;20419;-44
2023/05/13 10:56:13;;;;;;;3.10;1.90;;;21.30;1.00;;;;;;4830072;29;20047;-44
2023/05/13 10:58:39;;;;;;;2.90;1.77;;;21.30;1.00;;;;;;4822808;29;20043;-43
2023/05/13 11:01:17;;;;;;;4.25;2.35;;;21.20;1.00;;;;;;4831577;29;20050;-44
2023/05/13 11:03:56;;;;;;;3.25;2.42;;;21.30;1.00;;;;;;4834667;29;20047;-43
2023/05/13 11:06:40;;;;;;;5.15;2.25;;;21.30;1.00;;;;;;4821399;29;20046;-43
2023/05/13 11:09:29;;;;;;;3.65;2.63;;;21.20;1.00;;;;;;4823984;29;20050;-43
2023/05/13 11:11:59;;;;;;;4.82;2.78;;;21.20;1.00;;;;;;4827600;29;20073;-43
2023/05/13 11:14:29;;;;;;;3.30;2.33;;;21.20;1.00;;;;;;4840665;29;20034;-46
2023/05/13 11:17:03;;;;;;;4.72;2.85;;;21.20;1.00;;;;;;4825673;29;20062;-45
2023/05/13 11:19:35;;;;;;;5.80;2.45;;;21.20;1.00;;;;;;4834258;29;20098;-43
2023/05/13 11:22:16;;;;;;;4.25;2.17;;;21.20;1.00;;;;;;4833003;29;20046;-43
2023/05/13 11:24:45;;;;;;;3.72;2.83;;;21.20;1.00;;;;;;4840688;29;20046;-43
2023/05/13 11:27:14;;;;;;;4.40;2.38;;;21.20;1.00;;;;;;4832790;29;20449;-43
2023/05/13 11:29:53;;;;;;;5.05;2.70;;;21.20;1.00;;;;;;4840845;29;20139;-43
2023/05/13 11:32:57;;;;;;;5.63;2.72;;;21.20;1.00;;;;;;4837796;29;20078;-44
2023/05/13 11:35:31;;;;;;;3.97;2.47;;;21.20;1.00;;;;;;4825764;29;20501;-44
2023/05/13 11:38:00;;;;;;;4.45;2.67;;;21.20;1.00;;;;;;4832867;29;20042;-43
2023/05/13 11:40:28;;;;;;;3.40;2.25;;;21.20;1.00;;;;;;4829566;29;20605;-44
2023/05/13 11:42:55;;;;;;;4.05;2.85;;;21.20;1.00;;;;;;4836397;29;20046;-43
2023/05/13 11:45:23;;;;;;;7.10;2.75;;;21.20;1.00;;;;;;4832716;29;20094;-44
2023/05/13 11:47:52;;;;;;;3.53;2.47;;;21.20;1.00;;;;;;4839292;29;20529;-43
2023/05/13 11:50:29;;;;;;;4.88;2.83;;;21.20;1.00;;;;;;4832967;29;20130;-45
2023/05/13 11:52:58;;;;;;;4.65;2.83;;;21.20;1.00;;;;;;4826090;29;20054;-44
2023/05/13 11:55:35;;;;;;;2.45;1.92;;;21.20;1.00;;;;;;4822550;29;20046;-43
2023/05/13 11:58:02;;;;;;;4.45;2.60;;;21.20;1.00;;;;;;4829614;29;20062;-43
2023/05/13 12:00:31;;;;;;;5.63;2.50;;;21.20;1.00;;;;;;4833650;29;20038;-43
2023/05/13 12:02:59;;;;;;;3.75;2.72;;;21.20;1.00;;;;;;4840620;29;20145;-44
2023/05/13 12:05:26;;;;;;;4.10;2.88;;;21.10;1.00;;;;;;4829653;29;20043;-43
2023/05/13 12:07:57;;;;;;;3.22;2.80;;;21.10;1.00;;;;;;4822088;29;20046;-43
2023/05/13 12:10:25;;;;;;;2.60;2.08;;;21.10;1.00;;;;;;4833336;29;20106;-43
2023/05/13 12:12:52;;;;;;;4.00;2.60;;;21.10;1.00;;;;;;4834021;29;20125;-43
2023/05/13 12:15:20;;;;;;;3.13;2.17;;;21.10;1.00;;;;;;4824576;29;20133;-43
2023/05/13 12:17:49;;;;;;;2.50;2.10;;;21.10;1.00;;;;;;4836033;29;20046;-45
2023/05/13 12:20:20;;;;;;;4.00;2.17;;;21.10;1.00;;;;;;4835895;29;20474;-43
2023/05/13 12:22:49;;;;;;;4.57;2.13;;;21.10;1.00;;;;;;4843732;29;20099;-43
2023/05/13 12:25:40;;;;;;;4.72;3.28;;;21.10;1.00;;;;;;4843493;29;20046;-43
2023/05/13 12:28:21;;;;;;;3.80;2.30;;;21.10;1.00;;;;;;4843386;29;20064;-43
2023/05/13 12:31:03;;;;;;;3.80;2.95;;;21.10;1.00;;;;;;4830597;29;20084;-43
2023/05/13 12:33:30;;;;;;;3.13;2.20;;;21.10;1.00;;;;;;4832664;29;20125;-43
2023/05/13 12:36:34;;;;;;;3.20;2.40;;;21.00;1.00;;;;;;4824915;29;20115;-43
2023/05/13 12:39:10;;;;;;;4.57;2.20;;;21.00;1.00;;;;;;4816194;29;20072;-43
2023/05/13 12:41:39;;;;;;;3.85;2.90;;;21.00;1.00;;;;;;4836992;29;20053;-43
2023/05/13 12:44:15;;;;;;;3.10;2.30;;;21.00;1.00;;;;;;4835783;29;20071;-43
2023/05/13 12:46:54;;;;;;;4.05;2.53;;;21.00;1.00;;;;;;4830737;29;20053;-43
2023/05/13 12:49:21;;;;;;;4.15;2.50;;;21.00;1.00;;;;;;4842681;29;20054;-46
2023/05/13 12:51:48;;;;;;;2.90;2.15;;;21.00;1.00;;;;;;4836002;29;20080;-44
2023/05/13 12:54:15;;;;;;;3.78;2.53;;;21.00;1.00;;;;;;4826244;29;20058;-43
2023/05/13 12:56:42;;;;;;;5.22;2.95;;;21.00;1.00;;;;;;4832962;29;20051;-46
2023/05/13 12:59:09;;;;;;;3.25;2.40;;;21.00;1.00;;;;;;4841650;29;20098;-43
2023/05/13 13:01:36;;;;;;;3.08;2.30;;;21.00;1.00;;;;;;4830748;29;20046;-44
2023/05/13 13:04:03;;;;;;;4.70;3.10;;;21.00;1.00;;;;;;4844605;29;20042;-43
2023/05/13 13:06:31;;;;;;;3.67;2.67;;;21.00;1.00;;;;;;4841829;29;20118;-43
2023/05/13 13:08:58;;;;;;;2.50;2.15;;;21.00;1.00;;;;;;4827026;29;20057;-43